createdAt,value
2022-11-26T00:02:18.928Z,101729.41
2022-11-26T00:04:48.009Z,101720.59
2022-11-26T00:07:19.208Z,101736.13
2022-11-26T00:09:46.667Z,101734.97
2022-11-26T00:12:16.893Z,101736.75
2022-11-26T00:14:44.591Z,101736.47
2022-11-26T00:17:13.200Z,101738.81
2022-11-26T00:19:41.259Z,101734.97
2022-11-26T00:22:21.947Z,101741.84
2022-11-26T00:24:50.442Z,101742.34
2022-11-26T00:27:18.010Z,101746.34
2022-11-26T00:29:45.496Z,101744.97
2022-11-26T00:32:16.827Z,101754.63
2022-11-26T00:34:44.345Z,101750.59
2022-11-26T00:37:20.461Z,101746.84
2022-11-26T00:39:48.253Z,101749.16
2022-11-26T00:42:15.726Z,101756.78
2022-11-26T00:44:43.135Z,101757.38
2022-11-26T00:47:10.910Z,101769.00
2022-11-26T00:49:38.514Z,101758.31
2022-11-26T00:52:15.652Z,101769.16
2022-11-26T00:54:44.488Z,101760.88
2022-11-26T00:57:12.054Z,101768.69
2022-11-26T00:59:39.487Z,101770.31
2022-11-26T01:02:07.010Z,101771.56
2022-11-26T01:04:34.907Z,101777.00
2022-11-26T01:07:02.631Z,101785.28
2022-11-26T01:09:30.117Z,101785.19
2022-11-26T01:11:58.840Z,101784.59
2022-11-26T01:14:26.372Z,101788.59
2022-11-26T01:16:56.770Z,101798.53
2022-11-26T01:19:24.418Z,101800.84
2022-11-26T01:21:51.789Z,101803.34
2022-11-26T01:24:19.173Z,101800.25
2022-11-26T01:26:46.757Z,101802.19
2022-11-26T01:29:17.947Z,101809.16
2022-11-26T01:31:45.883Z,101815.44
2022-11-26T01:34:13.605Z,101817.56
2022-11-26T01:36:42.333Z,101814.28
2022-11-26T01:39:16.171Z,101817.56
2022-11-26T01:41:46.837Z,101822.81
2022-11-26T01:44:20.166Z,101814.44
2022-11-26T01:46:48.216Z,101818.47
2022-11-26T01:49:18.032Z,101821.25
2022-11-26T01:51:46.987Z,101819.91
2022-11-26T01:54:15.526Z,101815.22
2022-11-26T01:56:46.536Z,101811.84
2022-11-26T01:59:22.896Z,101814.13
2022-11-26T02:01:52.386Z,101823.44
2022-11-26T02:04:22.547Z,101821.63
2022-11-26T02:06:52.202Z,101831.06
2022-11-26T02:09:20.217Z,101828.59
2022-11-26T02:11:47.778Z,101836.13
2022-11-26T02:14:18.854Z,101833.50
2022-11-26T02:16:59.062Z,101833.50
2022-11-26T02:19:46.406Z,101845.72
2022-11-26T02:22:32.828Z,101854.09
2022-11-26T02:25:13.066Z,101854.47
2022-11-26T02:28:03.493Z,101853.41
2022-11-26T02:30:43.392Z,101860.44
2022-11-26T02:33:17.130Z,101861.09
2022-11-26T02:35:48.311Z,101868.16
2022-11-26T02:38:21.433Z,101864.34
2022-11-26T02:40:49.228Z,101864.69
2022-11-26T02:43:17.650Z,101867.38
2022-11-26T02:45:49.270Z,101869.56
2022-11-26T02:48:22.936Z,101873.19
2022-11-26T02:50:54.948Z,101875.41
2022-11-26T02:53:24.697Z,101871.31
2022-11-26T02:55:56.509Z,101872.47
2022-11-26T02:58:23.932Z,101872.91
2022-11-26T03:00:55.191Z,101870.41
2022-11-26T03:03:26.181Z,101873.69
2022-11-26T03:05:57.255Z,101869.03
2022-11-26T03:08:26.478Z,101864.88
2022-11-26T03:10:54.002Z,101871.03
2022-11-26T03:13:21.534Z,101873.72
2022-11-26T03:15:49.159Z,101877.94
2022-11-26T03:18:18.062Z,101884.97
2022-11-26T03:20:45.498Z,101882.53
2022-11-26T03:23:13.047Z,101885.88
2022-11-26T03:25:40.496Z,101879.84
2022-11-26T03:28:08.168Z,101892.66
2022-11-26T03:30:35.842Z,101902.28
2022-11-26T03:33:03.292Z,101892.84
2022-11-26T03:35:32.014Z,101903.19
2022-11-26T03:37:59.403Z,101898.97
2022-11-26T03:40:26.846Z,101904.53
2022-11-26T03:42:54.271Z,101895.09
2022-11-26T03:45:21.685Z,101902.44
2022-11-26T03:47:49.125Z,101900.34
2022-11-26T03:50:16.685Z,101902.91
2022-11-26T03:52:45.446Z,101908.97
2022-11-26T03:55:12.827Z,101919.38
2022-11-26T03:57:40.234Z,101917.06
2022-11-26T04:00:09.883Z,101923.94
2022-11-26T04:02:38.190Z,101924.19
2022-11-26T04:05:06.833Z,101922.66
2022-11-26T04:07:34.280Z,101931.31
2022-11-26T04:10:03.272Z,101935.38
2022-11-26T04:12:30.673Z,101938.50
2022-11-26T04:14:58.075Z,101937.22
2022-11-26T04:17:25.560Z,101941.72
2022-11-26T04:19:53.087Z,101944.19
2022-11-26T04:22:20.531Z,101944.06
2022-11-26T04:24:48.002Z,101950.47
2022-11-26T04:27:16.714Z,101954.78
2022-11-26T04:29:44.111Z,101959.16
2022-11-26T04:32:11.563Z,101963.00
2022-11-26T04:34:39.240Z,101964.22
2022-11-26T04:37:06.852Z,101973.44
2022-11-26T04:39:34.503Z,101972.31
2022-11-26T04:42:01.918Z,101979.13
2022-11-26T04:44:30.692Z,101972.88
2022-11-26T04:46:58.087Z,101977.56
2022-11-26T04:49:25.778Z,101970.81
2022-11-26T04:51:53.251Z,101981.44
2022-11-26T04:54:20.682Z,101975.63
2022-11-26T04:56:48.078Z,101990.31
2022-11-26T04:59:15.479Z,101996.44
2022-11-26T05:01:44.522Z,102005.59
2022-11-26T05:04:12.059Z,102006.63
2022-11-26T05:06:39.437Z,102012.91
2022-11-26T05:09:06.907Z,102016.88
2022-11-26T05:11:34.297Z,102016.69
2022-11-26T05:14:01.742Z,102017.00
2022-11-26T05:16:29.310Z,102024.22
2022-11-26T05:18:58.092Z,102030.63
2022-11-26T05:21:25.532Z,102032.16
2022-11-26T05:23:52.984Z,102034.72
2022-11-26T05:26:20.549Z,102034.28
2022-11-26T05:28:48.068Z,102038.84
2022-11-26T05:31:15.531Z,102041.94
2022-11-26T05:33:43.049Z,102053.44
2022-11-26T05:36:11.842Z,102053.78
2022-11-26T05:38:39.230Z,102061.69
2022-11-26T05:41:06.652Z,102065.75
2022-11-26T05:43:34.070Z,102059.28
2022-11-26T05:46:04.950Z,102064.97
2022-11-26T05:48:32.504Z,102060.25
2022-11-26T05:51:00.723Z,102060.41
2022-11-26T05:53:30.420Z,102063.78
2022-11-26T05:55:57.856Z,102070.94
2022-11-26T05:58:25.466Z,102077.94
2022-11-26T06:00:53.026Z,102078.25
2022-11-26T06:03:20.823Z,102080.41
2022-11-26T06:05:48.611Z,102079.84
2022-11-26T06:08:16.016Z,102082.28
2022-11-26T06:10:45.423Z,102086.91
2022-11-26T06:13:12.844Z,102092.91
2022-11-26T06:15:40.280Z,102092.16
2022-11-26T06:18:07.697Z,102095.75
2022-11-26T06:20:35.452Z,102096.34
2022-11-26T06:23:02.898Z,102104.19
2022-11-26T06:25:30.311Z,102105.28
2022-11-26T06:27:59.048Z,102111.09
2022-11-26T06:30:26.408Z,102124.06
2022-11-26T06:32:53.848Z,102124.47
2022-11-26T06:35:21.238Z,102124.19
2022-11-26T06:37:48.686Z,102130.88
2022-11-26T06:40:18.204Z,102135.78
2022-11-26T06:42:49.318Z,102134.03
2022-11-26T06:45:18.510Z,102136.16
2022-11-26T06:47:47.475Z,102142.59
2022-11-26T06:50:15.562Z,102139.44
2022-11-26T06:52:42.973Z,102151.47
2022-11-26T06:55:10.807Z,102157.59
2022-11-26T06:57:38.272Z,102153.63
2022-11-26T07:00:07.122Z,102156.03
2022-11-26T07:02:35.946Z,102157.97
2022-11-26T07:05:03.443Z,102167.28
2022-11-26T07:07:30.981Z,102177.34
2022-11-26T07:09:58.427Z,102176.75
2022-11-26T07:12:25.845Z,102183.28
2022-11-26T07:14:53.255Z,102178.94
2022-11-26T07:17:20.635Z,102186.38
2022-11-26T07:19:50.064Z,102185.34
2022-11-26T07:22:17.570Z,102184.63
2022-11-26T07:24:44.967Z,102187.25
2022-11-26T07:27:12.405Z,102189.41
2022-11-26T07:29:39.806Z,102189.44
2022-11-26T07:32:07.223Z,102194.63
2022-11-26T07:34:34.870Z,102192.50
2022-11-26T07:37:03.620Z,102193.34
2022-11-26T07:39:31.146Z,102204.41
2022-11-26T07:41:58.545Z,102203.97
2022-11-26T07:44:25.989Z,102203.16
2022-11-26T07:46:53.578Z,102201.03
2022-11-26T07:49:20.993Z,102201.41
2022-11-26T07:51:48.425Z,102213.38
2022-11-26T07:54:17.175Z,102206.16
2022-11-26T07:56:44.537Z,102212.50
2022-11-26T07:59:12.184Z,102210.31
2022-11-26T08:01:39.858Z,102218.13
2022-11-26T08:04:07.954Z,102219.63
2022-11-26T08:06:35.520Z,102221.75
2022-11-26T08:09:04.734Z,102229.34
2022-11-26T08:11:34.314Z,102220.00
2022-11-26T08:14:04.510Z,102226.09
2022-11-26T08:16:32.495Z,102230.59
2022-11-26T08:19:02.287Z,102239.22
2022-11-26T08:21:29.730Z,102249.78
2022-11-26T08:23:57.166Z,102244.13
2022-11-26T08:26:38.444Z,102244.50
2022-11-26T08:29:08.556Z,102244.44
2022-11-26T08:31:39.941Z,102243.94
2022-11-26T08:34:13.848Z,102249.13
2022-11-26T08:36:41.327Z,102250.69
2022-11-26T08:39:10.055Z,102259.34
2022-11-26T08:41:37.464Z,102256.13
2022-11-26T08:44:06.673Z,102258.50
2022-11-26T08:46:36.253Z,102261.06
2022-11-26T08:49:04.403Z,102267.56
2022-11-26T08:51:31.821Z,102270.88
2022-11-26T08:53:59.224Z,102276.31
2022-11-26T08:56:27.030Z,102276.84
2022-11-26T08:58:54.451Z,102282.84
2022-11-26T09:01:24.445Z,102287.28
2022-11-26T09:03:55.357Z,102289.88
2022-11-26T09:06:24.865Z,102290.75
2022-11-26T09:09:10.057Z,102298.38
2022-11-26T09:11:40.087Z,102302.97
2022-11-26T09:14:08.356Z,102299.09
2022-11-26T09:16:36.024Z,102305.19
2022-11-26T09:19:06.180Z,102312.75
2022-11-26T09:21:34.345Z,102308.47
2022-11-26T09:24:02.027Z,102305.97
2022-11-26T09:26:31.161Z,102307.09
2022-11-26T09:28:58.728Z,102315.47
2022-11-26T09:31:26.765Z,102313.16
2022-11-26T09:33:56.083Z,102324.59
2022-11-26T09:36:24.981Z,102329.69
2022-11-26T09:38:54.626Z,102334.06
2022-11-26T09:41:38.968Z,102335.72
2022-11-26T09:44:16.217Z,102337.31
2022-11-26T09:47:11.094Z,102345.09
2022-11-26T09:49:45.012Z,102341.25
2022-11-26T09:52:18.211Z,102346.16
2022-11-26T09:54:46.630Z,102350.16
2022-11-26T09:57:22.690Z,102350.75
2022-11-26T09:59:52.913Z,102342.34
2022-11-26T10:02:20.335Z,102353.63
2022-11-26T10:04:49.002Z,102351.44
2022-11-26T10:07:37.287Z,102361.16
2022-11-26T10:10:14.493Z,102372.13
2022-11-26T10:13:17.410Z,102369.97
2022-11-26T10:15:44.935Z,102366.03
2022-11-26T10:18:24.339Z,102360.56
2022-11-26T10:21:14.473Z,102355.09
2022-11-26T10:23:48.699Z,102358.88
2022-11-26T10:26:17.750Z,102363.41
2022-11-26T10:28:47.154Z,102367.91
2022-11-26T10:31:21.545Z,102368.47
2022-11-26T10:33:55.636Z,102367.00
2022-11-26T10:36:28.616Z,102377.81
2022-11-26T10:38:57.372Z,102383.47
2022-11-26T10:41:27.200Z,102368.22
2022-11-26T10:43:54.716Z,102369.94
2022-11-26T10:46:34.174Z,102371.59
2022-11-26T10:49:16.719Z,102374.53
2022-11-26T10:51:49.378Z,102372.75
2022-11-26T10:54:30.739Z,102371.09
2022-11-26T10:57:04.965Z,102383.31
2022-11-26T10:59:37.907Z,102383.22
2022-11-26T11:02:23.509Z,102383.78
2022-11-26T11:04:53.677Z,102386.53
2022-11-26T11:07:42.760Z,102385.44
2022-11-26T11:10:18.284Z,102377.53
2022-11-26T11:12:50.303Z,102393.13
2022-11-26T11:15:25.000Z,102401.53
2022-11-26T11:17:59.037Z,102398.06
2022-11-26T11:20:35.591Z,102399.41
2022-11-26T11:23:07.157Z,102401.91
2022-11-26T11:25:38.416Z,102399.78
2022-11-26T11:28:15.386Z,102409.13
2022-11-26T11:30:44.406Z,102418.09
2022-11-26T11:33:18.652Z,102418.94
2022-11-26T11:35:51.078Z,102414.06
2022-11-26T11:38:24.330Z,102416.31
2022-11-26T11:40:53.241Z,102410.78
2022-11-26T11:43:23.058Z,102408.81
2022-11-26T11:46:08.927Z,102407.56
2022-11-26T11:48:46.855Z,102409.97
2022-11-26T11:51:21.291Z,102415.13
2022-11-26T11:53:57.420Z,102410.44
2022-11-26T11:56:32.050Z,102410.97
2022-11-26T11:59:37.057Z,102413.34
2022-11-26T12:02:23.775Z,102406.41
2022-11-26T12:05:21.432Z,102416.03
2022-11-26T12:07:59.095Z,102419.44
2022-11-26T12:10:35.793Z,102421.19
2022-11-26T12:13:10.784Z,102418.53
2022-11-26T12:15:46.094Z,102412.75
2022-11-26T12:18:23.453Z,102413.69
2022-11-26T12:20:55.075Z,102423.34
2022-11-26T12:23:30.616Z,102417.44
2022-11-26T12:26:06.268Z,102412.66
2022-11-26T12:28:41.016Z,102415.06
2022-11-26T12:31:13.872Z,102414.97
2022-11-26T12:33:47.348Z,102412.16
2022-11-26T12:36:21.355Z,102411.41
2022-11-26T12:38:54.092Z,102416.72
2022-11-26T12:41:26.259Z,102400.38
2022-11-26T12:44:02.222Z,102409.25
2022-11-26T12:46:35.903Z,102417.66
2022-11-26T12:49:11.138Z,102410.88
2022-11-26T12:51:44.296Z,102415.91
2022-11-26T12:54:17.643Z,102417.00
2022-11-26T12:56:55.301Z,102417.16
2022-11-26T12:59:31.853Z,102414.19
2022-11-26T13:01:59.840Z,102417.97
2022-11-26T13:04:37.663Z,102415.22
2022-11-26T13:07:18.460Z,102413.44
2022-11-26T13:09:59.039Z,102416.72
2022-11-26T13:12:37.260Z,102416.50
2022-11-26T13:15:12.589Z,102419.06
2022-11-26T13:17:43.771Z,102421.22
2022-11-26T13:20:29.935Z,102424.63
2022-11-26T13:23:09.490Z,102423.38
2022-11-26T13:25:56.108Z,102425.50
2022-11-26T13:28:36.132Z,102431.13
2022-11-26T13:31:24.240Z,102428.75
2022-11-26T13:34:07.296Z,102431.47
2022-11-26T13:36:57.751Z,102431.63
2022-11-26T13:39:53.608Z,102442.88
2022-11-26T13:42:42.285Z,102448.97
2022-11-26T13:45:35.825Z,102453.97
2022-11-26T13:48:10.348Z,102446.31
2022-11-26T13:50:44.819Z,102439.19
2022-11-26T13:53:16.894Z,102445.94
2022-11-26T13:55:48.833Z,102444.34
2022-11-26T13:58:21.895Z,102456.47
2022-11-26T14:00:49.340Z,102463.78
2022-11-26T14:03:46.393Z,102458.94
2022-11-26T14:06:15.042Z,102467.03
2022-11-26T14:08:44.959Z,102455.91
2022-11-26T14:11:18.382Z,102456.09
2022-11-26T14:14:26.909Z,102455.59
2022-11-26T14:17:14.523Z,102448.03
2022-11-26T14:20:09.565Z,102449.84
2022-11-26T14:22:38.731Z,102452.16
2022-11-26T14:25:09.804Z,102452.22
2022-11-26T14:27:40.713Z,102458.69
2022-11-26T14:30:25.509Z,102458.28
2022-11-26T14:33:09.430Z,102449.44
2022-11-26T14:35:41.566Z,102444.59
2022-11-26T14:38:25.957Z,102449.97
2022-11-26T14:40:58.414Z,102452.91
2022-11-26T14:43:25.846Z,102455.19
2022-11-26T14:46:04.809Z,102454.22
2022-11-26T14:48:36.364Z,102448.53
2022-11-26T14:51:09.324Z,102448.44
2022-11-26T14:53:41.297Z,102450.84
2022-11-26T14:56:10.780Z,102459.09
2022-11-26T14:58:43.221Z,102458.97
2022-11-26T15:01:19.875Z,102449.91
2022-11-26T15:03:59.012Z,102459.47
2022-11-26T15:06:30.229Z,102471.53
2022-11-26T15:09:10.890Z,102472.88
2022-11-26T15:11:41.563Z,102468.59
2022-11-26T15:14:19.524Z,102473.50
2022-11-26T15:16:54.380Z,102472.75
2022-11-26T15:19:22.577Z,102472.69
2022-11-26T15:21:52.031Z,102471.84
2022-11-26T15:24:19.876Z,102484.44
2022-11-26T15:26:48.840Z,102484.25
2022-11-26T15:29:34.936Z,102471.53
2022-11-26T15:32:03.097Z,102485.53
2022-11-26T15:34:33.124Z,102484.06
2022-11-26T15:37:02.040Z,102491.38
2022-11-26T15:39:31.534Z,102472.09
2022-11-26T15:42:04.408Z,102471.28
2022-11-26T15:44:40.557Z,102463.25
2022-11-26T15:47:20.899Z,102457.53
2022-11-26T15:49:52.015Z,102473.59
2022-11-26T15:52:23.538Z,102461.44
2022-11-26T15:55:15.664Z,102468.59
2022-11-26T15:57:44.728Z,102465.50
2022-11-26T16:00:22.157Z,102472.53
2022-11-26T16:02:51.456Z,102468.13
2022-11-26T16:05:30.505Z,102475.66
2022-11-26T16:08:02.237Z,102475.22
2022-11-26T16:10:35.294Z,102474.78
2022-11-26T16:13:08.895Z,102474.44
2022-11-26T16:15:36.959Z,102482.81
2022-11-26T16:18:13.034Z,102478.72
2022-11-26T16:20:40.649Z,102475.34
2022-11-26T16:23:22.399Z,102474.19
2022-11-26T16:26:13.256Z,102472.84
2022-11-26T16:28:40.793Z,102474.69
2022-11-26T16:31:08.518Z,102477.06
2022-11-26T16:33:36.228Z,102475.00
2022-11-26T16:36:16.477Z,102480.38
2022-11-26T16:38:45.906Z,102482.44
2022-11-26T16:41:14.853Z,102477.94
2022-11-26T16:43:42.768Z,102489.94
2022-11-26T16:46:14.967Z,102501.28
2022-11-26T16:48:44.282Z,102495.84
2022-11-26T16:51:14.013Z,102506.31
2022-11-26T16:53:41.618Z,102509.94
2022-11-26T16:56:18.967Z,102506.44
2022-11-26T16:58:47.256Z,102511.72
2022-11-26T17:01:14.764Z,102521.44
2022-11-26T17:03:48.205Z,102514.81
2022-11-26T17:06:25.011Z,102510.03
2022-11-26T17:08:55.162Z,102514.94
2022-11-26T17:11:24.758Z,102517.81
2022-11-26T17:13:52.327Z,102526.03
2022-11-26T17:16:22.098Z,102533.53
2022-11-26T17:18:53.015Z,102522.53
2022-11-26T17:21:20.855Z,102531.44
2022-11-26T17:23:48.380Z,102531.44
2022-11-26T17:26:20.574Z,102530.13
2022-11-26T17:28:49.983Z,102524.38
2022-11-26T17:31:17.807Z,102531.63
2022-11-26T17:33:45.427Z,102522.09
2022-11-26T17:36:17.240Z,102529.91
2022-11-26T17:38:45.546Z,102535.72
2022-11-26T17:41:13.290Z,102529.25
2022-11-26T17:43:40.880Z,102527.75
2022-11-26T17:46:15.842Z,102531.84
2022-11-26T17:48:43.841Z,102528.69
2022-11-26T17:51:14.224Z,102521.22
2022-11-26T17:53:42.514Z,102521.31
2022-11-26T17:56:17.309Z,102515.06
2022-11-26T17:58:45.198Z,102521.09
2022-11-26T18:01:14.850Z,102521.09
2022-11-26T18:03:42.658Z,102526.84
2022-11-26T18:06:15.700Z,102526.16
2022-11-26T18:08:43.447Z,102529.78
2022-11-26T18:11:12.023Z,102531.53
2022-11-26T18:13:39.672Z,102531.53
2022-11-26T18:16:07.315Z,102531.53
2022-11-26T18:18:36.189Z,102529.09
2022-11-26T18:21:03.693Z,102534.59
2022-11-26T18:23:31.504Z,102518.91
2022-11-26T18:25:58.901Z,102527.22
2022-11-26T18:28:26.312Z,102527.75
2022-11-26T18:30:58.167Z,102523.88
2022-11-26T18:33:27.101Z,102528.56
2022-11-26T18:35:58.782Z,102524.88
2022-11-26T18:38:30.761Z,102529.28
2022-11-26T18:41:05.592Z,102520.44
2022-11-26T18:43:33.533Z,102514.72
2022-11-26T18:46:04.055Z,102514.06
2022-11-26T18:48:34.240Z,102513.09
2022-11-26T18:51:03.463Z,102509.94
2022-11-26T18:53:31.513Z,102515.16
2022-11-26T18:55:59.791Z,102506.94
2022-11-26T18:58:30.944Z,102511.44
2022-11-26T19:00:59.555Z,102505.34
2022-11-26T19:03:28.174Z,102506.38
2022-11-26T19:05:56.140Z,102503.44
2022-11-26T19:08:28.075Z,102500.47
2022-11-26T19:10:55.474Z,102502.25
2022-11-26T19:13:27.577Z,102505.38
2022-11-26T19:16:02.206Z,102505.00
2022-11-26T19:18:30.645Z,102503.69
2022-11-26T19:21:00.359Z,102509.34
2022-11-26T19:23:29.452Z,102505.09
2022-11-26T19:25:57.019Z,102510.28
2022-11-26T19:28:26.346Z,102505.44
2022-11-26T19:31:05.086Z,102497.97
2022-11-26T19:33:33.399Z,102499.16
2022-11-26T19:36:04.868Z,102498.59
2022-11-26T19:38:34.042Z,102501.13
2022-11-26T19:41:02.418Z,102496.41
2022-11-26T19:43:31.901Z,102505.19
2022-11-26T19:46:03.774Z,102496.34
2022-11-26T19:48:34.608Z,102493.88
2022-11-26T19:51:02.566Z,102489.31
2022-11-26T19:53:30.111Z,102494.56
2022-11-26T19:56:02.535Z,102496.22
2022-11-26T19:58:31.197Z,102494.31
2022-11-26T20:00:59.099Z,102500.78
2022-11-26T20:03:29.845Z,102502.56
2022-11-26T20:06:06.063Z,102502.00
2022-11-26T20:08:34.436Z,102500.78
2022-11-26T20:11:08.893Z,102508.56
2022-11-26T20:13:38.011Z,102508.81
2022-11-26T20:16:07.063Z,102508.63
2022-11-26T20:18:34.842Z,102510.09
2022-11-26T20:21:03.937Z,102506.56
2022-11-26T20:23:34.762Z,102515.22
2022-11-26T20:26:02.513Z,102507.59
2022-11-26T20:28:31.484Z,102506.59
2022-11-26T20:30:59.004Z,102510.81
2022-11-26T20:33:26.823Z,102516.16
2022-11-26T20:35:55.631Z,102509.56
2022-11-26T20:38:23.399Z,102513.38
2022-11-26T20:41:00.073Z,102513.94
2022-11-26T20:43:35.494Z,102509.91
2022-11-26T20:46:06.590Z,102510.28
2022-11-26T20:48:39.010Z,102506.72
2022-11-26T20:51:08.657Z,102508.28
2022-11-26T20:53:37.676Z,102507.38
2022-11-26T20:56:06.367Z,102512.53
2022-11-26T20:58:33.929Z,102512.53
2022-11-26T21:01:01.469Z,102505.53
2022-11-26T21:03:31.876Z,102515.28
2022-11-26T21:06:02.869Z,102510.16
2022-11-26T21:08:30.478Z,102508.13
2022-11-26T21:10:57.847Z,102509.03
2022-11-26T21:13:25.311Z,102504.00
2022-11-26T21:15:52.671Z,102507.88
2022-11-26T21:18:20.267Z,102502.41
2022-11-26T21:20:48.983Z,102500.50
2022-11-26T21:23:16.412Z,102496.66
2022-11-26T21:25:44.337Z,102503.59
2022-11-26T21:28:14.768Z,102505.38
2022-11-26T21:30:42.946Z,102511.34
2022-11-26T21:33:10.438Z,102500.22
2022-11-26T21:35:38.436Z,102507.50
2022-11-26T21:38:07.228Z,102508.94
2022-11-26T21:40:34.715Z,102508.78
2022-11-26T21:43:02.349Z,102504.22
2022-11-26T21:45:30.008Z,102507.19
2022-11-26T21:47:57.434Z,102502.53
2022-11-26T21:50:24.812Z,102506.59
2022-11-26T21:52:52.246Z,102515.13
2022-11-26T21:55:22.119Z,102508.81
2022-11-26T21:57:49.606Z,102501.94
2022-11-26T22:00:18.253Z,102511.13
2022-11-26T22:02:45.806Z,102505.00
2022-11-26T22:05:13.329Z,102503.19
2022-11-26T22:07:40.837Z,102506.22
2022-11-26T22:10:09.871Z,102512.38
2022-11-26T22:12:38.667Z,102517.91
2022-11-26T22:15:06.994Z,102515.94
2022-11-26T22:17:34.452Z,102512.91
2022-11-26T22:20:01.850Z,102513.41
2022-11-26T22:22:29.353Z,102507.63
2022-11-26T22:24:56.791Z,102515.59
2022-11-26T22:27:24.318Z,102515.28
2022-11-26T22:29:53.131Z,102516.81
2022-11-26T22:32:21.741Z,102516.16
2022-11-26T22:34:49.145Z,102506.06
2022-11-26T22:37:16.604Z,102516.97
2022-11-26T22:39:44.030Z,102510.16
2022-11-26T22:42:13.747Z,102513.50
2022-11-26T22:44:41.219Z,102505.28
2022-11-26T22:47:10.123Z,102511.59
2022-11-26T22:49:38.552Z,102512.69
2022-11-26T22:52:06.370Z,102514.22
2022-11-26T22:54:33.773Z,102509.56
2022-11-26T22:57:01.299Z,102512.56
2022-11-26T22:59:28.811Z,102518.28
2022-11-26T23:01:56.801Z,102515.75
2022-11-26T23:04:25.571Z,102511.56
2022-11-26T23:06:52.968Z,102508.47
2022-11-26T23:09:20.410Z,102515.94
2022-11-26T23:11:47.869Z,102514.16
2022-11-26T23:14:15.341Z,102512.81
2022-11-26T23:16:43.907Z,102510.53
2022-11-26T23:19:14.710Z,102509.75
2022-11-26T23:21:44.704Z,102513.22
2022-11-26T23:24:12.327Z,102498.16
2022-11-26T23:26:41.242Z,102495.06
2022-11-26T23:29:10.077Z,102499.91
2022-11-26T23:31:39.836Z,102497.06
2022-11-26T23:34:08.945Z,102502.66
2022-11-26T23:36:37.411Z,102500.25
2022-11-26T23:39:07.992Z,102490.69
2022-11-26T23:41:35.489Z,102498.09
2022-11-26T23:44:03.430Z,102499.63
2022-11-26T23:46:33.082Z,102498.66
2022-11-26T23:49:00.499Z,102491.13
2022-11-26T23:51:31.345Z,102491.00
2022-11-26T23:53:59.187Z,102493.22
2022-11-26T23:56:30.116Z,102493.59
2022-11-26T23:58:59.362Z,102495.72
